Time;durP1;ratioP1;P1;durP2;ratioP2;P2;SDS_P1;SDS_P2;PMS_P1;PMS_P2;Temp;Humidity;BMP_temperature;BMP_pressure;BME280_temperature;BME280_humidity;BME280_pressure;Samples;Min_cycle;Max_cycle;Signal;HPM_P1;HPM_P2
2023/01/04 00:04:02;;;;;;;594.27;40.27;;;;;2.50;97519.00;;;;8299071;28;20317;-89
2023/01/04 00:08:11;;;;;;;229.30;25.70;;;;;2.50;97510.00;;;;8299521;28;20288;-87
2023/01/04 00:12:41;;;;;;;503.80;36.17;;;;;2.60;97514.00;;;;8299141;28;20587;-86
2023/01/04 00:16:45;;;;;;;477.77;35.10;;;;;2.70;97520.00;;;;8299230;28;20705;-87
2023/01/04 00:20:48;;;;;;;538.27;37.07;;;;;2.80;97505.00;;;;8298436;28;20539;-82
2023/01/04 00:24:54;;;;;;;249.80;25.03;;;;;2.90;97491.00;;;;8299446;28;20723;-81
2023/01/04 00:28:58;;;;;;;556.60;36.23;;;;;2.90;97498.00;;;;8298717;28;20224;-81
2023/01/04 00:33:33;;;;;;;449.17;31.70;;;;;2.90;97493.00;;;;8295587;28;20196;-81
2023/01/04 00:37:37;;;;;;;498.60;30.27;;;;;3.00;97488.00;;;;8297901;28;20210;-80
2023/01/04 00:41:43;;;;;;;464.00;29.50;;;;;3.00;97478.00;;;;8296518;28;20201;-79
2023/01/04 00:46:26;;;;;;;415.60;25.20;;;;;3.00;97465.00;;;;8298305;28;20189;-79
2023/01/04 00:50:30;;;;;;;372.50;23.20;;;;;3.10;97465.00;;;;8296900;28;20200;-78
2023/01/04 00:54:35;;;;;;;394.17;22.33;;;;;3.20;97470.00;;;;8297767;28;20209;-77
2023/01/04 00:58:40;;;;;;;310.43;20.43;;;;;3.30;97472.00;;;;8297324;28;20205;-77
2023/01/04 01:02:44;;;;;;;434.20;24.97;;;;;3.30;97472.00;;;;8296045;28;20227;-77
2023/01/04 01:06:49;;;;;;;456.40;24.77;;;;;3.40;97473.00;;;;8300256;28;20217;-77
2023/01/04 01:10:53;;;;;;;357.57;22.43;;;;;3.40;97475.00;;;;8297806;28;20191;-76
2023/01/04 01:15:00;;;;;;;404.27;24.00;;;;;3.50;97487.00;;;;8301896;28;20513;-77
2023/01/04 01:19:37;;;;;;;412.47;23.47;;;;;3.40;97486.00;;;;8302054;28;20195;-79
2023/01/04 01:23:42;;;;;;;409.70;24.03;;;;;3.50;97493.00;;;;8300613;28;20222;-79
2023/01/04 01:27:45;;;;;;;352.87;21.83;;;;;3.50;97478.00;;;;8301696;28;20693;-80
2023/01/04 01:31:50;;;;;;;419.73;24.57;;;;;3.60;97481.00;;;;8301625;28;20243;-80
2023/01/04 01:36:27;;;;;;;279.37;19.13;;;;;3.60;97480.00;;;;8302087;28;20610;-81
2023/01/04 01:40:30;;;;;;;312.80;21.43;;;;;3.60;97466.00;;;;8301356;28;20258;-79
2023/01/04 01:45:10;;;;;;;408.17;23.93;;;;;3.60;97471.00;;;;8301025;28;20233;-80
2023/01/04 01:49:23;;;;;;;392.17;24.10;;;;;3.60;97465.00;;;;8301291;28;20216;-79
2023/01/04 01:53:53;;;;;;;243.40;20.67;;;;;3.50;97463.00;;;;8301462;28;20206;-78
2023/01/04 01:58:00;;;;;;;328.73;23.90;;;;;3.50;97458.00;;;;8300557;28;20198;-79
2023/01/04 02:02:36;;;;;;;275.77;20.53;;;;;3.50;97470.00;;;;8289607;28;20229;-78
2023/01/04 02:06:47;;;;;;;331.30;23.57;;;;;3.50;97477.00;;;;8300841;28;20220;-78
2023/01/04 02:11:17;;;;;;;199.10;16.93;;;;;3.50;97462.00;;;;8297002;28;20207;-77
2023/01/04 02:15:23;;;;;;;431.23;26.87;;;;;3.60;97464.00;;;;8300158;28;20192;-78
2023/01/04 02:20:05;;;;;;;263.97;18.63;;;;;3.50;97451.00;;;;8299970;28;20183;-78
2023/01/04 02:24:43;;;;;;;314.23;19.90;;;;;3.60;97447.00;;;;8299858;28;20237;-77
2023/01/04 02:29:12;;;;;;;125.40;13.67;;;;;3.70;97433.00;;;;8289182;28;20254;-77
2023/01/04 02:33:39;;;;;;;190.30;14.80;;;;;3.70;97428.00;;;;8299810;28;20251;-78
2023/01/04 02:37:48;;;;;;;367.77;20.77;;;;;3.70;97416.00;;;;8299849;28;20536;-78
2023/01/04 02:42:22;;;;;;;282.63;19.97;;;;;3.60;97421.00;;;;8299382;28;20233;-78
2023/01/04 02:46:29;;;;;;;331.43;21.50;;;;;3.60;97413.00;;;;8298843;28;20280;-77
2023/01/04 02:50:37;;;;;;;304.70;18.60;;;;;3.70;97418.00;;;;8298874;28;20201;-77
2023/01/04 02:54:47;;;;;;;203.03;16.40;;;;;3.70;97425.00;;;;8299061;28;20205;-76
2023/01/04 02:59:03;;;;;;;379.97;22.20;;;;;3.70;97415.00;;;;8299334;28;20206;-77
2023/01/04 03:07:51;;;;;;;274.73;17.23;;;;;3.80;97418.00;;;;8267312;28;20200;-77
2023/01/04 03:16:24;;;;;;;271.87;17.23;;;;;3.80;97424.00;;;;8303232;28;20208;-77
2023/01/04 03:20:30;;;;;;;188.27;15.70;;;;;3.90;97409.00;;;;8313681;28;20200;-77
2023/01/04 03:43:08;;;;;;;476.60;22.60;;;;;4.20;97392.00;;;;8305414;28;20221;-78
2023/01/04 03:51:17;;;;;;;84.20;12.13;;;;;4.40;97390.00;;;;8300620;28;20199;-80
2023/01/04 03:55:24;;;;;;;58.07;9.30;;;;;4.50;97375.00;;;;8303193;28;20903;-82
2023/01/04 03:59:29;;;;;;;57.57;8.03;;;;;4.60;97358.00;;;;8300646;28;20256;-82
2023/01/04 04:12:15;;;;;;;300.63;17.90;;;;;4.80;97342.00;;;;8274385;28;20201;-87
2023/01/04 04:16:19;;;;;;;77.77;11.10;;;;;4.80;97342.00;;;;8276177;28;20228;-88
2023/01/04 04:20:22;;;;;;;49.50;9.43;;;;;4.70;97339.00;;;;8274699;28;20196;-90
2023/01/04 04:24:28;;;;;;;172.23;15.00;;;;;4.70;97339.00;;;;8277654;28;20561;-87
2023/01/04 04:28:32;;;;;;;414.87;22.87;;;;;4.70;97350.00;;;;8281143;28;20221;-84
2023/01/04 04:32:38;;;;;;;359.20;20.23;;;;;4.70;97342.00;;;;8286055;28;20209;-83
2023/01/04 04:36:44;;;;;;;232.43;12.97;;;;;4.60;97345.00;;;;8286254;28;20666;-84
2023/01/04 04:45:11;;;;;;;207.67;12.37;;;;;4.60;97345.00;;;;8279417;28;20233;-84
2023/01/04 04:49:16;;;;;;;453.13;23.73;;;;;4.60;97336.00;;;;8282909;28;20233;-83
2023/01/04 04:53:20;;;;;;;325.33;18.60;;;;;4.70;97332.00;;;;8246641;28;20761;-82
2023/01/04 04:57:27;;;;;;;55.50;11.60;;;;;4.70;97324.00;;;;8235991;28;20241;-82
2023/01/04 05:01:33;;;;;;;156.47;15.67;;;;;4.80;97327.00;;;;8245872;28;20319;-81
2023/01/04 05:05:38;;;;;;;293.03;24.33;;;;;4.80;97336.00;;;;8244839;28;20308;-80
2023/01/04 05:09:43;;;;;;;67.70;13.87;;;;;4.90;97331.00;;;;8238291;28;20891;-81
2023/01/04 05:13:46;;;;;;;377.63;41.00;;;;;5.00;97324.00;;;;8235499;28;20214;-81
2023/01/04 05:17:52;;;;;;;56.60;13.57;;;;;5.00;97322.00;;;;8234527;28;20685;-82
2023/01/04 05:22:00;;;;;;;47.90;12.10;;;;;5.10;97329.00;;;;8243049;28;20601;-81
2023/01/04 05:26:04;;;;;;;37.87;10.13;;;;;5.10;97328.00;;;;8235710;28;20233;-82
2023/01/04 05:34:33;;;;;;;43.97;11.27;;;;;5.20;97320.00;;;;8243046;28;20201;-78
2023/01/04 05:38:38;;;;;;;46.00;12.10;;;;;5.20;97331.00;;;;8235028;28;20667;-76
2023/01/04 05:42:41;;;;;;;44.87;12.40;;;;;5.20;97333.00;;;;8234487;28;20650;-79
2023/01/04 05:46:47;;;;;;;35.00;10.20;;;;;5.20;97326.00;;;;8239853;28;20237;-76
2023/01/04 05:50:50;;;;;;;41.87;12.07;;;;;5.30;97323.00;;;;8243757;28;20647;-80
2023/01/04 05:55:04;;;;;;;47.67;12.93;;;;;5.30;97326.00;;;;8244194;28;20222;-78
2023/01/04 05:59:08;;;;;;;47.87;13.67;;;;;5.40;97326.00;;;;8240189;28;20265;-77
2023/01/04 06:03:11;;;;;;;51.30;14.10;;;;;5.40;97314.00;;;;8240741;28;20227;-76
2023/01/04 06:07:15;;;;;;;52.87;13.43;;;;;5.40;97308.00;;;;8237735;28;20233;-79
2023/01/04 06:11:20;;;;;;;43.00;13.20;;;;;5.40;97301.00;;;;8236681;28;20568;-78
2023/01/04 06:15:34;;;;;;;55.70;13.77;;;;;5.50;97290.00;;;;8235151;28;21010;-76
2023/01/04 06:19:44;;;;;;;47.27;13.87;;;;;5.50;97287.00;;;;8240716;28;20229;-78
2023/01/04 06:23:47;;;;;;;54.53;13.87;;;;;5.50;97289.00;;;;8238120;28;20297;-77
2023/01/04 06:27:52;;;;;;;49.17;12.97;;;;;5.60;97287.00;;;;8238347;28;20230;-78
2023/01/04 06:31:58;;;;;;;38.33;12.27;;;;;5.60;97291.00;;;;8234010;28;20206;-78
2023/01/04 06:36:01;;;;;;;43.37;12.47;;;;;5.60;97291.00;;;;8238243;28;20278;-76
2023/01/04 06:40:06;;;;;;;48.07;13.17;;;;;5.70;97299.00;;;;8239577;28;20195;-75
2023/01/04 06:44:14;;;;;;;49.73;13.53;;;;;5.70;97294.00;;;;8240213;28;20856;-79
2023/01/04 06:48:17;;;;;;;52.00;13.87;;;;;5.70;97299.00;;;;8236528;28;20210;-77
2023/01/04 06:52:22;;;;;;;46.03;13.27;;;;;5.80;97303.00;;;;8243574;28;20753;-76
2023/01/04 06:56:26;;;;;;;46.80;13.23;;;;;5.80;97293.00;;;;8238496;28;20670;-77
2023/01/04 07:00:31;;;;;;;53.90;15.47;;;;;5.80;97292.00;;;;8239427;28;20209;-77
2023/01/04 07:04:37;;;;;;;48.33;13.57;;;;;5.80;97284.00;;;;8234448;28;20324;-77
2023/01/04 07:08:40;;;;;;;42.60;12.20;;;;;5.90;97285.00;;;;8242495;28;20842;-76
2023/01/04 07:12:45;;;;;;;47.53;13.57;;;;;5.90;97283.00;;;;8235487;28;20202;-77
2023/01/04 07:16:49;;;;;;;40.60;12.43;;;;;5.90;97280.00;;;;8226689;28;20490;-75
2023/01/04 07:20:54;;;;;;;46.00;13.17;;;;;5.90;97279.00;;;;8235992;28;20826;-76
2023/01/04 07:25:00;;;;;;;44.60;13.67;;;;;6.00;97278.00;;;;8236025;28;20230;-76
2023/01/04 07:29:16;;;;;;;47.20;13.53;;;;;6.00;97285.00;;;;8235550;28;20733;-76
2023/01/04 07:33:20;;;;;;;45.30;13.10;;;;;6.10;97249.00;;;;8236019;28;20634;-75
2023/01/04 07:37:26;;;;;;;47.33;14.53;;;;;6.10;97252.00;;;;8234328;28;21094;-76
2023/01/04 07:41:32;;;;;;;47.50;14.10;;;;;6.10;97257.00;;;;8236895;28;20860;-76
2023/01/04 07:45:38;;;;;;;55.60;14.40;;;;;6.20;97259.00;;;;8241605;28;20226;-75
2023/01/04 07:49:43;;;;;;;54.47;14.67;;;;;6.20;97259.00;;;;8235939;28;20231;-75
2023/01/04 07:53:46;;;;;;;49.70;14.63;;;;;6.20;97256.00;;;;8238959;28;20199;-80
2023/01/04 07:57:49;;;;;;;51.90;14.73;;;;;6.20;97261.00;;;;8235647;28;20211;-80
2023/01/04 08:01:52;;;;;;;39.53;13.73;;;;;6.20;97254.00;;;;8242861;28;20379;-79
2023/01/04 08:05:57;;;;;;;44.40;13.40;;;;;6.30;97244.00;;;;8238224;28;20231;-78
2023/01/04 08:10:04;;;;;;;46.43;13.87;;;;;6.40;97240.00;;;;8244474;28;20198;-79
2023/01/04 08:14:10;;;;;;;45.70;13.93;;;;;6.40;97248.00;;;;8249374;28;20633;-83
2023/01/04 08:18:16;;;;;;;44.13;13.20;;;;;6.50;97246.00;;;;8244239;28;20214;-82
2023/01/04 08:22:27;;;;;;;43.40;14.37;;;;;6.70;97246.00;;;;8244100;28;20244;-81
2023/01/04 08:26:33;;;;;;;48.63;14.73;;;;;6.80;97238.00;;;;8251579;28;20306;-82
2023/01/04 08:30:36;;;;;;;49.07;15.33;;;;;6.90;97231.00;;;;8247184;28;20203;-85
2023/01/04 08:34:44;;;;;;;41.60;13.73;;;;;7.10;97229.00;;;;8245289;28;20206;-79
2023/01/04 08:38:55;;;;;;;51.67;14.73;;;;;7.10;97226.00;;;;8243645;28;20223;-79
2023/01/04 08:43:05;;;;;;;48.43;15.23;;;;;7.20;97225.00;;;;8245967;28;20199;-80
2023/01/04 08:47:11;;;;;;;50.50;16.03;;;;;7.30;97223.00;;;;8236807;28;20262;-81
2023/01/04 08:51:16;;;;;;;52.87;16.27;;;;;7.40;97211.00;;;;8241695;28;20203;-82
2023/01/04 08:55:21;;;;;;;51.13;16.27;;;;;7.60;97193.00;;;;8244257;28;20203;-81
2023/01/04 08:59:26;;;;;;;41.10;13.57;;;;;7.70;97208.00;;;;8242048;28;20203;-82
2023/01/04 09:03:30;;;;;;;44.67;15.40;;;;;7.80;97193.00;;;;8237666;28;20280;-80
2023/01/04 09:07:33;;;;;;;42.63;14.90;;;;;7.80;97193.00;;;;8239539;28;20257;-80
2023/01/04 09:11:38;;;;;;;41.80;15.37;;;;;7.90;97191.00;;;;8244976;28;20561;-79
2023/01/04 09:15:41;;;;;;;50.47;16.80;;;;;7.90;97191.00;;;;8241385;28;20195;-76
2023/01/04 09:19:44;;;;;;;47.73;15.47;;;;;7.90;97189.00;;;;8243814;28;20198;-76
2023/01/04 09:23:48;;;;;;;45.27;13.80;;;;;7.90;97179.00;;;;8271197;23;21486;-71
2023/01/04 09:27:53;;;;;;;48.77;16.07;;;;;7.80;97171.00;;;;8236592;28;20227;-74
2023/01/04 09:31:57;;;;;;;36.63;12.80;;;;;7.70;97171.00;;;;8242120;28;20261;-71
2023/01/04 09:36:02;;;;;;;44.63;14.63;;;;;7.80;97169.00;;;;8250955;28;20203;-73
2023/01/04 09:40:10;;;;;;;41.97;14.20;;;;;7.80;97156.00;;;;8252036;28;20224;-74
2023/01/04 09:44:24;;;;;;;45.40;15.50;;;;;7.90;97148.00;;;;8249455;28;20285;-73
2023/01/04 09:48:52;;;;;;;40.73;15.67;;;;;7.90;97156.00;;;;8253039;28;20222;-71
2023/01/04 09:53:03;;;;;;;40.27;16.40;;;;;7.90;97145.00;;;;8255044;28;20195;-72
2023/01/04 09:57:13;;;;;;;42.50;15.37;;;;;8.00;97141.00;;;;8253568;28;20215;-72
2023/01/04 10:01:22;;;;;;;41.43;15.30;;;;;8.00;97141.00;;;;8249020;28;20203;-70
2023/01/04 10:05:28;;;;;;;44.13;14.93;;;;;8.10;97139.00;;;;8251858;28;20286;-74
2023/01/04 10:09:32;;;;;;;35.17;13.67;;;;;8.10;97128.00;;;;8252478;28;20252;-73
2023/01/04 10:13:52;;;;;;;35.57;14.10;;;;;8.10;97126.00;;;;8252696;28;20202;-76
2023/01/04 10:18:09;;;;;;;41.13;13.73;;;;;8.10;97124.00;;;;8249290;28;20199;-74
2023/01/04 10:22:40;;;;;;;36.20;14.07;;;;;8.10;97114.00;;;;8245459;28;20285;-73
2023/01/04 10:26:47;;;;;;;39.40;15.23;;;;;8.00;97106.00;;;;8241639;28;20238;-70
2023/01/04 10:31:03;;;;;;;32.30;11.70;;;;;7.90;97098.00;;;;8243379;28;20205;-72
2023/01/04 10:35:28;;;;;;;39.53;13.87;;;;;7.80;97077.00;;;;8249269;28;20631;-71
2023/01/04 10:39:34;;;;;;;38.43;14.70;;;;;7.80;97086.00;;;;8249482;28;20272;-75
2023/01/04 10:43:42;;;;;;;34.87;12.93;;;;;7.80;97081.00;;;;8248332;28;20234;-72
2023/01/04 10:48:19;;;;;;;41.20;14.83;;;;;7.80;97068.00;;;;8241170;28;20235;-72
2023/01/04 10:52:32;;;;;;;44.57;15.37;;;;;7.80;97048.00;;;;8245125;28;20290;-74
2023/01/04 10:56:55;;;;;;;39.93;12.83;;;;;7.80;97061.00;;;;8241733;28;20285;-76
2023/01/04 11:01:07;;;;;;;43.37;14.17;;;;;7.70;97054.00;;;;8239734;28;20202;-74
2023/01/04 11:05:19;;;;;;;39.67;13.10;;;;;7.70;97050.00;;;;8243715;28;20762;-73
2023/01/04 11:09:27;;;;;;;34.00;11.53;;;;;7.70;97052.00;;;;8242900;28;20242;-74
2023/01/04 11:13:31;;;;;;;30.97;11.13;;;;;7.70;97051.00;;;;8240782;28;20203;-73
2023/01/04 11:17:35;;;;;;;34.07;11.37;;;;;7.80;97031.00;;;;8242684;28;20203;-74
2023/01/04 11:21:45;;;;;;;30.57;12.03;;;;;7.90;97034.00;;;;8242571;28;20203;-75
2023/01/04 11:26:07;;;;;;;33.33;12.10;;;;;8.00;97027.00;;;;8234255;28;20237;-74
2023/01/04 11:30:18;;;;;;;28.47;10.03;;;;;8.10;97028.00;;;;8230589;28;20821;-73
2023/01/04 11:34:44;;;;;;;24.47;9.63;;;;;8.20;97015.00;;;;8236314;28;20199;-73
2023/01/04 11:38:55;;;;;;;25.45;9.70;;;;;8.20;97011.00;;;;8243612;28;20203;-75
2023/01/04 11:43:16;;;;;;;24.87;9.10;;;;;8.30;97011.00;;;;8234146;28;20538;-74
2023/01/04 11:47:24;;;;;;;22.33;9.23;;;;;8.30;96998.00;;;;8234373;28;20311;-73
2023/01/04 11:51:38;;;;;;;23.23;8.97;;;;;8.30;96990.00;;;;8240712;28;20225;-73
2023/01/04 11:55:41;;;;;;;18.95;7.53;;;;;8.30;96977.00;;;;8231619;28;20266;-74
2023/01/04 12:00:07;;;;;;;22.37;7.97;;;;;8.30;96974.00;;;;8230749;28;20258;-70
2023/01/04 12:04:15;;;;;;;19.83;8.93;;;;;8.30;96983.00;;;;8241516;28;21149;-69
2023/01/04 12:08:29;;;;;;;15.57;8.17;;;;;8.40;96976.00;;;;8234872;28;20289;-75
2023/01/04 12:12:34;;;;;;;16.20;7.20;;;;;8.40;96974.00;;;;8229855;28;20211;-75
2023/01/04 12:16:48;;;;;;;11.63;6.43;;;;;8.50;96957.00;;;;8238766;28;20206;-74
2023/01/04 12:20:54;;;;;;;11.90;5.93;;;;;8.60;96972.00;;;;8232174;28;20206;-78
2023/01/04 12:24:59;;;;;;;14.20;6.63;;;;;8.70;96957.00;;;;8232806;28;20281;-82
2023/01/04 12:29:40;;;;;;;14.67;6.87;;;;;8.80;96932.00;;;;8228799;28;20684;-79
2023/01/04 12:33:46;;;;;;;9.25;4.90;;;;;8.90;96910.00;;;;8233865;28;20275;-79
2023/01/04 12:37:49;;;;;;;8.13;4.97;;;;;9.00;96902.00;;;;8231889;28;20198;-83
2023/01/04 12:42:25;;;;;;;7.57;4.85;;;;;9.10;96901.00;;;;8232198;28;20257;-80
2023/01/04 12:51:24;;;;;;;9.53;4.80;;;;;9.30;96907.00;;;;8247829;28;20233;-81
2023/01/04 12:55:58;;;;;;;8.10;4.30;;;;;9.30;96902.00;;;;8249939;28;20214;-80
2023/01/04 13:00:07;;;;;;;6.65;4.25;;;;;9.30;96898.00;;;;8248444;28;20213;-81
2023/01/04 13:04:38;;;;;;;7.90;4.47;;;;;9.40;96893.00;;;;8242113;28;20548;-79
2023/01/04 13:08:45;;;;;;;5.53;3.45;;;;;9.50;96895.00;;;;8239956;28;20239;-81
2023/01/04 13:13:07;;;;;;;4.55;3.92;;;;;9.50;96908.00;;;;8249822;28;20772;-78
2023/01/04 13:17:21;;;;;;;5.85;4.00;;;;;9.60;96896.00;;;;8246755;28;20211;-79
2023/01/04 13:21:29;;;;;;;4.13;3.20;;;;;9.60;96900.00;;;;8239192;28;20206;-81
2023/01/04 13:25:36;;;;;;;4.93;3.50;;;;;9.70;96899.00;;;;8251058;28;20828;-79
2023/01/04 13:29:45;;;;;;;5.38;3.40;;;;;9.70;96891.00;;;;8231517;28;20242;-79
2023/01/04 13:33:49;;;;;;;3.43;2.60;;;;;9.70;96886.00;;;;8235706;28;20207;-81
2023/01/04 13:37:52;;;;;;;4.37;3.60;;;;;9.70;96871.00;;;;8246112;28;20300;-80
2023/01/04 13:42:00;;;;;;;5.03;3.72;;;;;9.70;96869.00;;;;8247526;28;20244;-82
2023/01/04 13:46:15;;;;;;;2.95;2.72;;;;;9.70;96859.00;;;;8241738;28;20206;-80
2023/01/04 13:50:28;;;;;;;4.28;3.03;;;;;9.80;96866.00;;;;8235554;28;20231;-78
2023/01/04 13:54:33;;;;;;;3.22;2.70;;;;;9.80;96864.00;;;;8236173;28;20205;-80
2023/01/04 13:58:51;;;;;;;6.47;4.15;;;;;9.80;96855.00;;;;8243546;28;20213;-78
2023/01/04 14:03:22;;;;;;;24.10;21.70;;;;;9.90;96842.00;;;;8234748;28;20199;-80
2023/01/04 14:07:26;;;;;;;14.85;10.88;;;;;9.90;96835.00;;;;8238296;28;20234;-80
2023/01/04 14:16:14;;;;;;;20.67;15.60;;;;;9.80;96832.00;;;;8240277;28;20333;-79
2023/01/04 14:20:36;;;;;;;4.17;3.77;;;;;9.80;96828.00;;;;8238077;28;20222;-80
2023/01/04 14:24:40;;;;;;;114.82;82.68;;;;;9.80;96809.00;;;;8234298;28;20773;-79
2023/01/04 14:29:24;;;;;;;18.70;13.68;;;;;9.80;96814.00;;;;8249035;28;20939;-81
2023/01/04 14:33:31;;;;;;;21.17;13.60;;;;;9.80;96810.00;;;;8241180;28;20256;-82
2023/01/04 14:37:35;;;;;;;5.47;4.25;;;;;9.80;96825.00;;;;8240713;28;20842;-82
2023/01/04 14:41:40;;;;;;;19.95;18.13;;;;;9.80;96807.00;;;;8229074;28;20242;-79
2023/01/04 14:45:46;;;;;;;9.70;8.82;;;;;9.80;96826.00;;;;8238606;28;20207;-79
2023/01/04 14:49:55;;;;;;;6.13;4.35;;;;;9.80;96813.00;;;;8243799;28;20231;-79
2023/01/04 14:53:58;;;;;;;4.22;3.22;;;;;9.80;96820.00;;;;8236402;28;20240;-81
2023/01/04 14:58:01;;;;;;;5.47;4.43;;;;;9.80;96831.00;;;;8236442;28;20253;-81
2023/01/04 15:02:06;;;;;;;4.20;3.43;;;;;9.80;96818.00;;;;8228992;28;20348;-81
2023/01/04 15:06:14;;;;;;;6.23;3.20;;;;;9.80;96819.00;;;;8235510;28;20200;-82
2023/01/04 15:10:24;;;;;;;5.35;3.00;;;;;9.80;96817.00;;;;8239878;28;20222;-81
2023/01/04 15:14:29;;;;;;;3.83;2.88;;;;;9.90;96808.00;;;;8241015;28;20211;-82
2023/01/04 15:18:32;;;;;;;6.93;4.17;;;;;9.90;96823.00;;;;8237808;28;20244;-84
2023/01/04 15:22:40;;;;;;;6.32;4.18;;;;;9.90;96819.00;;;;8236317;28;20203;-82
2023/01/04 15:26:43;;;;;;;7.37;4.77;;;;;10.00;96809.00;;;;8238502;28;20565;-81
2023/01/04 15:30:51;;;;;;;6.50;4.60;;;;;10.00;96803.00;;;;8232852;28;20227;-82
2023/01/04 15:34:58;;;;;;;5.83;4.10;;;;;10.00;96807.00;;;;8236076;28;20207;-81
2023/01/04 15:39:06;;;;;;;23.10;14.52;;;;;10.00;96794.00;;;;8236165;28;20201;-81
2023/01/04 15:43:10;;;;;;;30.85;12.55;;;;;10.00;96803.00;;;;8240515;28;20207;-78
2023/01/04 15:47:13;;;;;;;7.68;5.30;;;;;10.00;96799.00;;;;8244635;28;20234;-78
2023/01/04 15:51:17;;;;;;;9.70;5.75;;;;;10.00;96783.00;;;;8250052;28;20227;-78
2023/01/04 15:55:44;;;;;;;11.33;6.57;;;;;10.00;96781.00;;;;8246310;28;20210;-78
2023/01/04 15:59:50;;;;;;;7.75;5.05;;;;;10.00;96785.00;;;;8247489;28;20265;-80
2023/01/04 16:03:53;;;;;;;8.65;5.30;;;;;10.00;96758.00;;;;8243600;28;20207;-79
2023/01/04 16:12:56;;;;;;;4.30;3.90;;;;;9.90;96736.00;;;;8266106;28;20624;-77
2023/01/04 16:17:03;;;;;;;6.43;4.97;;;;;9.80;96731.00;;;;8263366;28;20198;-77
2023/01/04 16:21:07;;;;;;;4.53;3.65;;;;;9.80;96731.00;;;;8271893;28;20544;-77
2023/01/04 16:25:11;;;;;;;6.75;2.78;;;;;9.90;96710.00;;;;8271799;28;20673;-77
2023/01/04 16:29:20;;;;;;;2.63;2.42;;;;;9.90;96704.00;;;;8271118;28;20227;-77
2023/01/04 16:33:51;;;;;;;2.92;2.72;;;;;9.90;96701.00;;;;8269370;28;20659;-77
2023/01/04 16:37:59;;;;;;;3.47;3.10;;;;;9.50;96695.00;;;;8269638;28;20195;-77
2023/01/04 16:42:04;;;;;;;2.80;2.60;;;;;9.40;96698.00;;;;8271206;28;20203;-77
2023/01/04 16:46:25;;;;;;;4.03;2.90;;;;;9.40;96699.00;;;;8271302;28;20201;-78
2023/01/04 16:50:30;;;;;;;7.18;3.03;;;;;9.60;96688.00;;;;8271757;28;20309;-78
2023/01/04 16:54:36;;;;;;;6.25;3.58;;;;;9.70;96704.00;;;;8270276;28;20261;-78
2023/01/04 16:58:42;;;;;;;4.00;3.35;;;;;9.80;96697.00;;;;8270972;28;20587;-79
2023/01/04 17:03:21;;;;;;;3.22;2.83;;;;;9.50;96700.00;;;;8270810;28;20250;-77
2023/01/04 17:07:31;;;;;;;3.30;3.00;;;;;9.30;96695.00;;;;8270313;28;20596;-76
2023/01/04 17:11:39;;;;;;;4.45;3.35;;;;;9.20;96701.00;;;;8269439;28;20218;-76
2023/01/04 17:16:02;;;;;;;4.13;3.20;;;;;9.10;96701.00;;;;8270522;28;20203;-77
2023/01/04 17:20:08;;;;;;;4.82;4.00;;;;;9.10;96694.00;;;;8270523;28;20195;-78
2023/01/04 17:24:15;;;;;;;5.18;3.00;;;;;9.10;96689.00;;;;8270181;28;20754;-80
2023/01/04 17:28:19;;;;;;;4.68;3.00;;;;;9.10;96696.00;;;;8269614;28;20215;-79
2023/01/04 17:32:27;;;;;;;4.05;3.08;;;;;9.10;96693.00;;;;8268213;28;20179;-76
2023/01/04 17:37:05;;;;;;;4.03;2.87;;;;;9.00;96680.00;;;;8269975;28;20249;-75
2023/01/04 17:41:10;;;;;;;4.37;2.77;;;;;9.00;96688.00;;;;8269357;28;20245;-75
2023/01/04 17:45:44;;;;;;;3.60;2.80;;;;;8.90;96685.00;;;;8267381;28;20261;-75
2023/01/04 17:49:47;;;;;;;3.38;2.90;;;;;8.90;96681.00;;;;8262955;28;20219;-74
2023/01/04 17:53:56;;;;;;;6.10;3.35;;;;;8.80;96681.00;;;;8264383;28;20250;-75
2023/01/04 17:58:03;;;;;;;4.38;3.10;;;;;8.80;96668.00;;;;8264171;28;20202;-75
2023/01/04 18:02:35;;;;;;;3.63;3.20;;;;;8.80;96663.00;;;;8263057;28;20195;-76
2023/01/04 18:06:43;;;;;;;2.45;2.25;;;;;8.90;96667.00;;;;8263321;28;20205;-76
2023/01/04 18:10:50;;;;;;;3.20;2.83;;;;;8.90;96667.00;;;;8262531;28;20233;-76
2023/01/04 18:15:12;;;;;;;5.95;2.92;;;;;9.00;96654.00;;;;8263449;28;20202;-76
2023/01/04 18:19:21;;;;;;;3.83;3.05;;;;;9.00;96648.00;;;;8263117;28;20591;-76
2023/01/04 18:23:52;;;;;;;3.13;2.83;;;;;9.10;96641.00;;;;8263067;28;20218;-77
2023/01/04 18:28:17;;;;;;;4.15;3.20;;;;;9.10;96648.00;;;;8263850;28;20194;-77
2023/01/04 18:32:51;;;;;;;5.35;3.47;;;;;9.20;96648.00;;;;8262864;28;20202;-77
2023/01/04 18:36:54;;;;;;;8.32;3.10;;;;;9.20;96645.00;;;;8263391;28;20206;-77
2023/01/04 18:41:32;;;;;;;3.30;3.00;;;;;9.10;96641.00;;;;8262649;28;20204;-77
2023/01/04 18:46:10;;;;;;;3.53;2.97;;;;;9.10;96638.00;;;;8262937;28;20639;-77
2023/01/04 18:50:44;;;;;;;3.80;3.35;;;;;9.10;96638.00;;;;8259570;28;20321;-77
2023/01/04 18:54:50;;;;;;;3.47;2.97;;;;;9.20;96626.00;;;;8262757;28;20194;-77
2023/01/04 18:59:24;;;;;;;5.28;3.38;;;;;9.30;96629.00;;;;8261715;28;20194;-76
2023/01/04 19:04:04;;;;;;;3.97;2.95;;;;;9.40;96620.00;;;;8264759;28;20199;-77
2023/01/04 19:08:40;;;;;;;5.40;3.70;;;;;9.50;96608.00;;;;8267453;28;20187;-77
2023/01/04 19:13:14;;;;;;;4.60;3.10;;;;;9.50;96622.00;;;;8267022;28;20199;-77
2023/01/04 19:17:23;;;;;;;3.53;2.40;;;;;9.60;96604.00;;;;8266711;28;20188;-77
2023/01/04 19:21:58;;;;;;;3.20;2.10;;;;;9.60;96599.00;;;;8267691;28;20261;-77
2023/01/04 19:26:09;;;;;;;3.22;2.17;;;;;9.60;96601.00;;;;8266316;28;20660;-77
2023/01/04 19:30:37;;;;;;;2.58;2.38;;;;;9.60;96595.00;;;;8266245;28;20215;-77
2023/01/04 19:35:17;;;;;;;2.58;2.13;;;;;9.60;96589.00;;;;8266357;28;20198;-78
2023/01/04 19:39:51;;;;;;;4.30;2.17;;;;;9.60;96590.00;;;;8266341;28;20199;-77
2023/01/04 19:44:29;;;;;;;2.13;2.03;;;;;9.60;96583.00;;;;8265652;28;20207;-77
2023/01/04 19:49:05;;;;;;;2.50;2.05;;;;;9.70;96578.00;;;;8265927;28;20206;-77
2023/01/04 19:53:16;;;;;;;5.88;2.10;;;;;9.70;96588.00;;;;8267721;28;20206;-78
2023/01/04 19:57:22;;;;;;;2.28;2.10;;;;;9.80;96589.00;;;;8272945;28;20199;-77
2023/01/04 20:01:58;;;;;;;1.90;1.80;;;;;9.80;96591.00;;;;8271804;28;20189;-78
2023/01/04 20:06:03;;;;;;;1.90;1.80;;;;;9.90;96596.00;;;;8272386;28;20656;-78
2023/01/04 20:10:38;;;;;;;3.80;1.83;;;;;9.90;96587.00;;;;8272428;28;20237;-78
2023/01/04 20:14:41;;;;;;;1.73;1.63;;;;;10.00;96571.00;;;;8272105;28;20707;-77
2023/01/04 20:18:45;;;;;;;2.70;1.75;;;;;10.10;96566.00;;;;8269934;28;20217;-78
2023/01/04 20:23:22;;;;;;;1.70;1.70;;;;;10.20;96565.00;;;;8271994;28;20191;-77
2023/01/04 20:27:25;;;;;;;2.95;1.70;;;;;10.30;96577.00;;;;8272151;28;20276;-77
2023/01/04 20:32:07;;;;;;;1.98;1.55;;;;;10.30;96576.00;;;;8265377;28;20603;-78
2023/01/04 20:36:17;;;;;;;1.75;1.65;;;;;10.40;96560.00;;;;8270663;28;20560;-77
2023/01/04 20:40:47;;;;;;;1.58;1.48;;;;;10.40;96561.00;;;;8270836;28;20207;-78
2023/01/04 20:44:51;;;;;;;1.98;1.73;;;;;10.50;96568.00;;;;8270303;28;20199;-77
2023/01/04 20:49:25;;;;;;;4.03;2.25;;;;;10.50;96573.00;;;;8271189;28;20227;-77
2023/01/04 20:54:03;;;;;;;1.40;1.30;;;;;10.60;96568.00;;;;8269674;28;20201;-77
2023/01/04 20:58:37;;;;;;;1.70;1.60;;;;;10.60;96575.00;;;;8270141;28;20583;-77
2023/01/04 21:02:40;;;;;;;2.20;1.55;;;;;10.60;96564.00;;;;8270838;28;20285;-77
2023/01/04 21:06:44;;;;;;;2.75;1.55;;;;;10.60;96575.00;;;;8270190;28;20628;-77
2023/01/04 21:10:53;;;;;;;1.80;1.70;;;;;10.60;96568.00;;;;8268706;28;20223;-78
2023/01/04 21:15:24;;;;;;;2.45;1.50;;;;;10.60;96566.00;;;;8262352;28;20179;-77
2023/01/04 21:19:27;;;;;;;1.48;1.38;;;;;10.70;96555.00;;;;8262875;28;20257;-78
2023/01/04 21:23:30;;;;;;;2.50;1.40;;;;;10.70;96546.00;;;;8269810;28;20207;-78
2023/01/04 21:28:09;;;;;;;1.15;1.15;;;;;10.60;96561.00;;;;8270716;28;20211;-78
2023/01/04 21:32:16;;;;;;;1.88;1.73;;;;;10.50;96565.00;;;;8269452;28;20268;-78
2023/01/04 21:36:22;;;;;;;3.28;1.30;;;;;10.50;96569.00;;;;8270334;28;20628;-78
2023/01/04 21:40:25;;;;;;;1.50;1.40;;;;;10.60;96550.00;;;;8269056;28;20196;-78
2023/01/04 21:44:32;;;;;;;1.35;1.33;;;;;10.60;96548.00;;;;8269111;28;20656;-78
2023/01/04 21:48:36;;;;;;;3.25;1.50;;;;;10.60;96546.00;;;;8268826;28;20253;-78
2023/01/04 21:52:42;;;;;;;1.45;1.45;;;;;10.70;96571.00;;;;8269060;28;20568;-78
2023/01/04 21:56:45;;;;;;;2.55;1.40;;;;;10.70;96568.00;;;;8268941;28;20632;-78
2023/01/04 22:01:25;;;;;;;1.50;1.40;;;;;10.80;96567.00;;;;8269078;28;20230;-77